sensor_id;sensor_type;location;lat;lon;timestamp;P1;durP1;ratioP1;P2;durP2;ratioP2
61358;SDS011;47228;46.762;23.598;2022-07-29T00:01:40;10.60;;;6.70;;
61358;SDS011;47228;46.762;23.598;2022-07-29T00:04:08;9.50;;;6.50;;
61358;SDS011;47228;46.762;23.598;2022-07-29T00:06:37;10.10;;;6.40;;
61358;SDS011;47228;46.762;23.598;2022-07-29T00:09:05;8.00;;;5.80;;
61358;SDS011;47228;46.762;23.598;2022-07-29T00:11:33;8.70;;;5.80;;
61358;SDS011;47228;46.762;23.598;2022-07-29T00:14:01;8.90;;;5.80;;
61358;SDS011;47228;46.762;23.598;2022-07-29T00:16:29;8.80;;;6.00;;
61358;SDS011;47228;46.762;23.598;2022-07-29T00:18:57;10.00;;;6.40;;
61358;SDS011;47228;46.762;23.598;2022-07-29T00:21:29;11.20;;;6.30;;
61358;SDS011;47228;46.762;23.598;2022-07-29T00:23:57;9.00;;;6.40;;
61358;SDS011;47228;46.762;23.598;2022-07-29T00:26:25;10.60;;;6.40;;
61358;SDS011;47228;46.762;23.598;2022-07-29T00:28:55;8.30;;;6.00;;
61358;SDS011;47228;46.762;23.598;2022-07-29T00:31:43;11.50;;;6.90;;
61358;SDS011;47228;46.762;23.598;2022-07-29T00:34:12;9.60;;;6.00;;
61358;SDS011;47228;46.762;23.598;2022-07-29T00:36:59;11.00;;;6.70;;
61358;SDS011;47228;46.762;23.598;2022-07-29T00:39:27;13.50;;;6.80;;
61358;SDS011;47228;46.762;23.598;2022-07-29T00:41:55;10.70;;;6.10;;
61358;SDS011;47228;46.762;23.598;2022-07-29T00:44:23;10.40;;;6.10;;
61358;SDS011;47228;46.762;23.598;2022-07-29T00:46:51;11.40;;;6.20;;
61358;SDS011;47228;46.762;23.598;2022-07-29T00:49:19;10.50;;;6.20;;
61358;SDS011;47228;46.762;23.598;2022-07-29T00:51:47;9.80;;;6.70;;
61358;SDS011;47228;46.762;23.598;2022-07-29T00:54:17;10.80;;;7.10;;
61358;SDS011;47228;46.762;23.598;2022-07-29T00:56:45;10.10;;;6.70;;
61358;SDS011;47228;46.762;23.598;2022-07-29T00:59:14;10.40;;;6.80;;
61358;SDS011;47228;46.762;23.598;2022-07-29T01:01:42;8.90;;;5.80;;
61358;SDS011;47228;46.762;23.598;2022-07-29T01:04:10;9.80;;;6.40;;
61358;SDS011;47228;46.762;23.598;2022-07-29T01:06:41;11.20;;;6.20;;
61358;SDS011;47228;46.762;23.598;2022-07-29T01:09:10;11.00;;;6.90;;
61358;SDS011;47228;46.762;23.598;2022-07-29T01:11:38;10.30;;;6.40;;
61358;SDS011;47228;46.762;23.598;2022-07-29T01:14:07;9.00;;;6.00;;
61358;SDS011;47228;46.762;23.598;2022-07-29T01:16:40;8.40;;;5.90;;
61358;SDS011;47228;46.762;23.598;2022-07-29T01:19:22;8.30;;;5.60;;
61358;SDS011;47228;46.762;23.598;2022-07-29T01:21:59;10.40;;;6.40;;
61358;SDS011;47228;46.762;23.598;2022-07-29T01:30:16;9.40;;;6.60;;
61358;SDS011;47228;46.762;23.598;2022-07-29T01:32:46;10.60;;;6.20;;
61358;SDS011;47228;46.762;23.598;2022-07-29T01:35:21;10.60;;;6.10;;
61358;SDS011;47228;46.762;23.598;2022-07-29T01:40:29;8.90;;;6.10;;
61358;SDS011;47228;46.762;23.598;2022-07-29T01:43:21;9.90;;;6.40;;
61358;SDS011;47228;46.762;23.598;2022-07-29T01:46:01;10.60;;;6.10;;
61358;SDS011;47228;46.762;23.598;2022-07-29T01:51:20;9.40;;;6.90;;
61358;SDS011;47228;46.762;23.598;2022-07-29T01:56:35;12.20;;;7.30;;
61358;SDS011;47228;46.762;23.598;2022-07-29T01:59:06;11.10;;;7.40;;
61358;SDS011;47228;46.762;23.598;2022-07-29T02:01:37;11.60;;;7.80;;
61358;SDS011;47228;46.762;23.598;2022-07-29T02:04:09;10.50;;;7.40;;
61358;SDS011;47228;46.762;23.598;2022-07-29T02:07:00;11.20;;;7.30;;
61358;SDS011;47228;46.762;23.598;2022-07-29T02:09:31;10.10;;;7.10;;
61358;SDS011;47228;46.762;23.598;2022-07-29T02:12:03;11.90;;;7.40;;
61358;SDS011;47228;46.762;23.598;2022-07-29T02:14:36;13.60;;;7.70;;
61358;SDS011;47228;46.762;23.598;2022-07-29T02:17:08;10.70;;;7.30;;
61358;SDS011;47228;46.762;23.598;2022-07-29T02:19:38;10.50;;;7.20;;
61358;SDS011;47228;46.762;23.598;2022-07-29T02:22:09;11.90;;;7.10;;
61358;SDS011;47228;46.762;23.598;2022-07-29T02:24:39;10.40;;;6.60;;
61358;SDS011;47228;46.762;23.598;2022-07-29T02:27:09;11.80;;;7.50;;
61358;SDS011;47228;46.762;23.598;2022-07-29T02:29:39;11.80;;;6.80;;
61358;SDS011;47228;46.762;23.598;2022-07-29T02:32:08;11.80;;;7.30;;
61358;SDS011;47228;46.762;23.598;2022-07-29T02:34:41;11.60;;;7.30;;
61358;SDS011;47228;46.762;23.598;2022-07-29T02:37:11;13.00;;;7.80;;
61358;SDS011;47228;46.762;23.598;2022-07-29T02:39:40;11.80;;;7.10;;
61358;SDS011;47228;46.762;23.598;2022-07-29T02:42:12;9.90;;;7.30;;
61358;SDS011;47228;46.762;23.598;2022-07-29T02:44:43;11.60;;;6.80;;
61358;SDS011;47228;46.762;23.598;2022-07-29T02:47:14;9.70;;;6.90;;
61358;SDS011;47228;46.762;23.598;2022-07-29T02:52:45;9.90;;;7.30;;
61358;SDS011;47228;46.762;23.598;2022-07-29T02:55:28;10.30;;;7.10;;
61358;SDS011;47228;46.762;23.598;2022-07-29T02:58:02;11.60;;;7.70;;
61358;SDS011;47228;46.762;23.598;2022-07-29T03:00:37;11.10;;;7.80;;
61358;SDS011;47228;46.762;23.598;2022-07-29T03:03:11;10.00;;;7.40;;
61358;SDS011;47228;46.762;23.598;2022-07-29T03:05:40;13.20;;;7.90;;
61358;SDS011;47228;46.762;23.598;2022-07-29T03:08:10;10.10;;;7.30;;
61358;SDS011;47228;46.762;23.598;2022-07-29T03:10:42;13.50;;;7.60;;
61358;SDS011;47228;46.762;23.598;2022-07-29T03:13:12;10.70;;;7.60;;
61358;SDS011;47228;46.762;23.598;2022-07-29T03:15:44;13.10;;;7.70;;
61358;SDS011;47228;46.762;23.598;2022-07-29T03:18:13;13.00;;;7.80;;
61358;SDS011;47228;46.762;23.598;2022-07-29T03:20:42;11.00;;;7.60;;
61358;SDS011;47228;46.762;23.598;2022-07-29T03:23:11;10.60;;;8.00;;
61358;SDS011;47228;46.762;23.598;2022-07-29T03:25:39;11.80;;;6.90;;
61358;SDS011;47228;46.762;23.598;2022-07-29T03:28:07;13.60;;;8.10;;
61358;SDS011;47228;46.762;23.598;2022-07-29T03:30:36;12.00;;;8.20;;
61358;SDS011;47228;46.762;23.598;2022-07-29T03:33:05;12.40;;;8.00;;
61358;SDS011;47228;46.762;23.598;2022-07-29T03:35:40;12.80;;;8.50;;
61358;SDS011;47228;46.762;23.598;2022-07-29T03:38:08;11.50;;;8.10;;
61358;SDS011;47228;46.762;23.598;2022-07-29T03:40:44;11.40;;;7.70;;
61358;SDS011;47228;46.762;23.598;2022-07-29T03:43:19;12.40;;;8.30;;
61358;SDS011;47228;46.762;23.598;2022-07-29T03:45:51;12.80;;;8.20;;
61358;SDS011;47228;46.762;23.598;2022-07-29T03:48:22;13.30;;;7.80;;
61358;SDS011;47228;46.762;23.598;2022-07-29T03:50:54;13.80;;;8.70;;
61358;SDS011;47228;46.762;23.598;2022-07-29T03:53:23;15.50;;;8.50;;
61358;SDS011;47228;46.762;23.598;2022-07-29T03:55:52;11.00;;;8.10;;
61358;SDS011;47228;46.762;23.598;2022-07-29T03:58:26;12.90;;;9.00;;
61358;SDS011;47228;46.762;23.598;2022-07-29T04:00:55;12.40;;;8.70;;
61358;SDS011;47228;46.762;23.598;2022-07-29T04:03:24;12.10;;;8.50;;
61358;SDS011;47228;46.762;23.598;2022-07-29T04:06:00;12.70;;;8.10;;
61358;SDS011;47228;46.762;23.598;2022-07-29T04:08:29;11.30;;;8.10;;
61358;SDS011;47228;46.762;23.598;2022-07-29T04:10:58;13.40;;;8.90;;
61358;SDS011;47228;46.762;23.598;2022-07-29T04:13:26;14.30;;;8.40;;
61358;SDS011;47228;46.762;23.598;2022-07-29T04:15:55;11.60;;;8.60;;
61358;SDS011;47228;46.762;23.598;2022-07-29T04:18:24;11.80;;;8.50;;
61358;SDS011;47228;46.762;23.598;2022-07-29T04:20:52;13.40;;;9.30;;
61358;SDS011;47228;46.762;23.598;2022-07-29T04:23:20;11.30;;;7.90;;
61358;SDS011;47228;46.762;23.598;2022-07-29T04:25:48;11.70;;;9.20;;
61358;SDS011;47228;46.762;23.598;2022-07-29T04:28:16;12.90;;;8.70;;
61358;SDS011;47228;46.762;23.598;2022-07-29T04:30:44;14.40;;;9.00;;
61358;SDS011;47228;46.762;23.598;2022-07-29T04:33:12;12.30;;;8.50;;
61358;SDS011;47228;46.762;23.598;2022-07-29T04:35:40;13.50;;;8.80;;
61358;SDS011;47228;46.762;23.598;2022-07-29T04:38:18;10.90;;;8.60;;
61358;SDS011;47228;46.762;23.598;2022-07-29T04:40:46;11.90;;;7.80;;
61358;SDS011;47228;46.762;23.598;2022-07-29T04:43:16;11.70;;;8.20;;
61358;SDS011;47228;46.762;23.598;2022-07-29T04:45:49;15.00;;;9.00;;
61358;SDS011;47228;46.762;23.598;2022-07-29T04:48:18;14.20;;;9.20;;
61358;SDS011;47228;46.762;23.598;2022-07-29T04:50:49;12.50;;;8.80;;
61358;SDS011;47228;46.762;23.598;2022-07-29T04:53:17;11.70;;;8.50;;
61358;SDS011;47228;46.762;23.598;2022-07-29T04:55:46;16.10;;;9.40;;
61358;SDS011;47228;46.762;23.598;2022-07-29T04:58:14;13.00;;;9.20;;
61358;SDS011;47228;46.762;23.598;2022-07-29T05:00:43;14.10;;;9.30;;
61358;SDS011;47228;46.762;23.598;2022-07-29T05:03:11;13.30;;;9.30;;
61358;SDS011;47228;46.762;23.598;2022-07-29T05:05:40;14.30;;;9.30;;
61358;SDS011;47228;46.762;23.598;2022-07-29T05:08:08;14.60;;;8.90;;
61358;SDS011;47228;46.762;23.598;2022-07-29T05:10:36;18.30;;;10.10;;
61358;SDS011;47228;46.762;23.598;2022-07-29T05:13:05;13.80;;;9.30;;
61358;SDS011;47228;46.762;23.598;2022-07-29T05:15:35;16.60;;;9.80;;
61358;SDS011;47228;46.762;23.598;2022-07-29T05:18:04;14.10;;;9.50;;
61358;SDS011;47228;46.762;23.598;2022-07-29T05:20:33;19.40;;;9.40;;
61358;SDS011;47228;46.762;23.598;2022-07-29T05:23:02;14.40;;;9.80;;
61358;SDS011;47228;46.762;23.598;2022-07-29T05:25:30;14.80;;;9.50;;
61358;SDS011;47228;46.762;23.598;2022-07-29T05:28:11;14.30;;;10.10;;
61358;SDS011;47228;46.762;23.598;2022-07-29T05:30:39;13.30;;;10.20;;
61358;SDS011;47228;46.762;23.598;2022-07-29T05:33:08;17.70;;;10.90;;
61358;SDS011;47228;46.762;23.598;2022-07-29T05:35:56;17.30;;;10.60;;
61358;SDS011;47228;46.762;23.598;2022-07-29T05:38:28;18.90;;;11.00;;
61358;SDS011;47228;46.762;23.598;2022-07-29T05:40:57;18.30;;;10.30;;
61358;SDS011;47228;46.762;23.598;2022-07-29T05:43:27;16.20;;;9.60;;
61358;SDS011;47228;46.762;23.598;2022-07-29T05:45:56;18.50;;;9.60;;
61358;SDS011;47228;46.762;23.598;2022-07-29T05:48:25;16.50;;;10.00;;
61358;SDS011;47228;46.762;23.598;2022-07-29T05:50:53;21.80;;;11.60;;
61358;SDS011;47228;46.762;23.598;2022-07-29T05:53:22;23.10;;;9.60;;
61358;SDS011;47228;46.762;23.598;2022-07-29T05:55:50;15.30;;;9.20;;
61358;SDS011;47228;46.762;23.598;2022-07-29T05:58:19;15.20;;;8.90;;
61358;SDS011;47228;46.762;23.598;2022-07-29T06:00:47;14.70;;;8.60;;
61358;SDS011;47228;46.762;23.598;2022-07-29T06:03:16;13.10;;;8.60;;
61358;SDS011;47228;46.762;23.598;2022-07-29T06:05:44;13.30;;;8.90;;
61358;SDS011;47228;46.762;23.598;2022-07-29T06:08:12;14.50;;;9.90;;
61358;SDS011;47228;46.762;23.598;2022-07-29T06:10:40;12.80;;;10.40;;
61358;SDS011;47228;46.762;23.598;2022-07-29T06:13:08;16.40;;;9.80;;
61358;SDS011;47228;46.762;23.598;2022-07-29T06:15:37;15.50;;;10.10;;
61358;SDS011;47228;46.762;23.598;2022-07-29T06:18:05;15.60;;;10.30;;
61358;SDS011;47228;46.762;23.598;2022-07-29T06:20:37;17.80;;;10.50;;
61358;SDS011;47228;46.762;23.598;2022-07-29T06:23:05;16.50;;;10.50;;
61358;SDS011;47228;46.762;23.598;2022-07-29T06:25:33;14.10;;;10.40;;
61358;SDS011;47228;46.762;23.598;2022-07-29T06:28:05;16.40;;;10.80;;
61358;SDS011;47228;46.762;23.598;2022-07-29T06:30:34;19.50;;;11.70;;
61358;SDS011;47228;46.762;23.598;2022-07-29T06:33:02;22.80;;;11.60;;
61358;SDS011;47228;46.762;23.598;2022-07-29T06:35:34;19.10;;;12.00;;
61358;SDS011;47228;46.762;23.598;2022-07-29T06:38:08;17.70;;;10.80;;
61358;SDS011;47228;46.762;23.598;2022-07-29T06:40:57;18.10;;;10.50;;
